createdAt,value
2022-10-18T00:00:48.765Z,13.10
2022-10-18T00:03:15.400Z,13.50
2022-10-18T00:05:42.024Z,13.40
2022-10-18T00:08:08.937Z,14.10
2022-10-18T00:10:35.623Z,13.20
2022-10-18T00:13:02.266Z,11.90
2022-10-18T00:15:29.052Z,11.00
2022-10-18T00:17:55.742Z,12.10
2022-10-18T00:20:22.396Z,11.20
2022-10-18T00:22:49.052Z,11.20
2022-10-18T00:25:15.743Z,12.00
2022-10-18T00:27:42.371Z,12.00
2022-10-18T00:30:09.562Z,12.20
2022-10-18T00:32:39.988Z,12.70
2022-10-18T00:35:07.258Z,12.40
2022-10-18T00:37:34.469Z,12.70
2022-10-18T00:40:01.387Z,12.60
2022-10-18T00:42:32.043Z,11.70
2022-10-18T00:45:13.289Z,11.80
2022-10-18T00:47:39.996Z,11.20
2022-10-18T00:50:07.054Z,11.80
2022-10-18T00:52:40.235Z,11.20
2022-10-18T00:55:07.308Z,10.90
2022-10-18T00:57:34.075Z,10.50
2022-10-18T01:00:00.754Z,10.30
2022-10-18T01:02:27.397Z,10.40
2022-10-18T01:04:54.055Z,10.00
2022-10-18T01:07:28.970Z,10.00
2022-10-18T01:10:31.418Z,11.90
2022-10-18T01:13:10.645Z,10.20
2022-10-18T01:16:08.440Z,10.60
2022-10-18T01:18:39.886Z,10.10
2022-10-18T01:21:38.437Z,9.80
2022-10-18T01:24:26.773Z,10.30
2022-10-18T01:27:05.874Z,10.40
2022-10-18T01:29:55.524Z,10.80
2022-10-18T01:32:24.458Z,11.60
2022-10-18T01:34:51.393Z,11.70
2022-10-18T01:37:18.034Z,11.50
2022-10-18T01:39:46.083Z,11.20
2022-10-18T01:42:13.901Z,11.10
2022-10-18T01:44:41.081Z,11.70
2022-10-18T01:47:08.932Z,11.00
2022-10-18T01:49:35.645Z,11.60
2022-10-18T01:52:02.369Z,11.20
2022-10-18T01:54:32.537Z,10.90
2022-10-18T01:57:18.007Z,10.60
2022-10-18T02:00:13.442Z,10.30
2022-10-18T02:02:57.796Z,10.90
2022-10-18T02:05:40.371Z,11.50
2022-10-18T02:08:29.353Z,11.50
2022-10-18T02:11:12.548Z,10.90
2022-10-18T02:13:43.426Z,10.40
2022-10-18T02:16:12.494Z,11.80
2022-10-18T02:18:41.592Z,12.10
2022-10-18T02:21:09.303Z,12.50
2022-10-18T02:23:36.095Z,12.90
2022-10-18T02:26:02.768Z,13.20
2022-10-18T02:28:29.463Z,12.00
2022-10-18T02:31:02.480Z,12.60
2022-10-18T02:33:58.521Z,12.20
2022-10-18T02:36:31.858Z,12.00
2022-10-18T02:39:01.615Z,11.80
2022-10-18T02:41:28.383Z,12.20
2022-10-18T02:43:55.010Z,12.20
2022-10-18T02:46:21.724Z,11.80
2022-10-18T02:48:48.527Z,10.80
2022-10-18T02:51:15.196Z,9.80
2022-10-18T02:53:41.884Z,10.00
2022-10-18T02:56:08.643Z,10.00
2022-10-18T02:58:35.333Z,12.30
2022-10-18T03:01:01.952Z,10.70
2022-10-18T03:03:28.722Z,10.80
2022-10-18T03:05:55.366Z,11.00
2022-10-18T03:08:22.800Z,10.40
2022-10-18T03:10:49.574Z,10.40
2022-10-18T03:13:16.280Z,10.60
2022-10-18T03:15:43.036Z,10.90
2022-10-18T03:18:09.740Z,10.40
2022-10-18T03:20:36.372Z,10.10
2022-10-18T03:23:03.403Z,10.70
2022-10-18T03:25:30.227Z,10.60
2022-10-18T03:27:56.930Z,10.70
2022-10-18T03:30:23.602Z,10.40
2022-10-18T03:32:50.399Z,10.10
2022-10-18T03:35:17.085Z,10.30
2022-10-18T03:37:43.718Z,10.10
2022-10-18T03:40:10.668Z,11.00
2022-10-18T03:42:37.275Z,10.30
2022-10-18T03:45:04.526Z,11.20
2022-10-18T03:47:31.211Z,10.00
2022-10-18T03:49:57.825Z,10.60
2022-10-18T03:52:24.560Z,10.30
2022-10-18T03:54:51.241Z,10.40
2022-10-18T03:57:17.851Z,11.00
2022-10-18T03:59:44.502Z,10.50
2022-10-18T04:02:11.256Z,10.10
2022-10-18T04:04:37.913Z,10.00
2022-10-18T04:07:04.708Z,10.00
2022-10-18T04:09:31.471Z,10.70
2022-10-18T04:11:58.119Z,10.80
2022-10-18T04:14:24.784Z,10.50
2022-10-18T04:16:51.668Z,10.60
2022-10-18T04:19:18.344Z,10.70
2022-10-18T04:21:45.108Z,10.40
2022-10-18T04:24:11.751Z,11.00
2022-10-18T04:26:38.399Z,11.60
2022-10-18T04:29:05.121Z,10.50
2022-10-18T04:31:31.810Z,10.30
2022-10-18T04:33:58.457Z,10.40
2022-10-18T04:36:25.097Z,10.50
2022-10-18T04:38:51.744Z,10.70
2022-10-18T04:41:18.396Z,10.50
2022-10-18T04:46:12.572Z,10.10
2022-10-18T04:48:39.630Z,10.10
2022-10-18T04:51:06.305Z,10.50
2022-10-18T04:53:33.036Z,10.10
2022-10-18T04:55:59.843Z,10.30
2022-10-18T04:58:26.563Z,10.40
2022-10-18T05:00:53.258Z,10.60
2022-10-18T05:03:19.957Z,10.40
2022-10-18T05:06:02.779Z,10.30
2022-10-18T05:08:30.560Z,9.70
2022-10-18T05:10:57.287Z,9.20
2022-10-18T05:13:24.020Z,9.90
2022-10-18T05:15:50.670Z,9.70
2022-10-18T05:18:17.435Z,9.70
2022-10-18T05:20:44.076Z,9.00
2022-10-18T05:23:13.644Z,9.60
2022-10-18T05:25:43.544Z,9.20
2022-10-18T05:28:34.590Z,9.30
2022-10-18T05:31:01.340Z,8.90
2022-10-18T05:33:28.083Z,9.40
2022-10-18T05:35:54.792Z,8.80
2022-10-18T05:38:21.611Z,9.20
2022-10-18T05:40:48.391Z,8.80
2022-10-18T05:43:15.131Z,8.50
2022-10-18T05:45:47.761Z,9.10
2022-10-18T05:48:14.437Z,8.50
2022-10-18T05:50:41.114Z,8.60
2022-10-18T05:53:12.480Z,9.20
2022-10-18T05:55:45.135Z,8.20
2022-10-18T05:58:11.872Z,8.00
2022-10-18T06:00:38.799Z,7.20
2022-10-18T06:03:05.560Z,6.80
2022-10-18T06:05:32.350Z,7.20
2022-10-18T06:07:59.114Z,7.40
2022-10-18T06:10:25.738Z,6.50
2022-10-18T06:12:52.357Z,6.40
2022-10-18T06:15:18.989Z,6.50
2022-10-18T06:17:45.665Z,6.70
2022-10-18T06:20:12.311Z,6.90
2022-10-18T06:22:39.141Z,6.90
2022-10-18T06:25:06.345Z,6.50
2022-10-18T06:27:34.786Z,6.40
2022-10-18T06:30:01.654Z,5.90
2022-10-18T06:32:28.318Z,5.80
2022-10-18T06:34:54.979Z,6.00
2022-10-18T06:37:21.627Z,5.60
2022-10-18T06:39:48.315Z,6.00
2022-10-18T06:42:16.077Z,6.00
2022-10-18T06:44:44.657Z,6.60
2022-10-18T06:47:11.668Z,6.00
2022-10-18T06:49:38.311Z,5.70
2022-10-18T06:52:05.761Z,5.30
2022-10-18T06:54:32.434Z,5.00
2022-10-18T06:56:59.515Z,4.90
2022-10-18T06:59:28.882Z,5.10
2022-10-18T07:01:57.925Z,4.70
2022-10-18T07:04:24.690Z,4.60
2022-10-18T07:06:54.039Z,5.00
2022-10-18T07:09:20.730Z,5.10
2022-10-18T07:11:47.391Z,4.70
2022-10-18T07:14:16.435Z,4.70
2022-10-18T07:16:43.407Z,5.10
2022-10-18T07:19:10.290Z,5.00
2022-10-18T07:21:37.021Z,5.20
2022-10-18T07:24:03.851Z,4.90
2022-10-18T07:26:32.107Z,4.70
2022-10-18T07:29:01.858Z,4.80
2022-10-18T07:31:29.426Z,4.50
2022-10-18T07:33:56.284Z,4.50
2022-10-18T07:36:23.209Z,4.40
2022-10-18T07:38:50.875Z,4.20
2022-10-18T07:41:17.550Z,4.60
2022-10-18T07:43:45.861Z,3.90
2022-10-18T07:46:12.772Z,4.20
2022-10-18T07:48:39.489Z,4.30
2022-10-18T07:51:06.261Z,4.50
2022-10-18T07:53:34.679Z,4.70
2022-10-18T07:56:05.826Z,4.50
2022-10-18T07:58:35.328Z,4.40
2022-10-18T08:01:03.468Z,5.00
2022-10-18T08:03:30.145Z,4.80
2022-10-18T08:05:56.897Z,5.40
2022-10-18T08:08:23.878Z,6.30
2022-10-18T08:10:50.541Z,5.60
2022-10-18T08:13:17.369Z,5.20
2022-10-18T08:15:44.189Z,4.80
2022-10-18T08:18:10.936Z,4.70
2022-10-18T08:20:37.841Z,4.10
2022-10-18T08:23:04.967Z,4.20
2022-10-18T08:25:31.657Z,4.40
2022-10-18T08:27:59.080Z,4.30
2022-10-18T08:30:25.819Z,4.10
2022-10-18T08:32:52.697Z,4.20
2022-10-18T08:35:19.634Z,3.70
2022-10-18T08:37:46.495Z,4.40
2022-10-18T08:40:14.215Z,3.70
2022-10-18T08:42:59.436Z,3.80
2022-10-18T08:45:40.978Z,3.80
2022-10-18T08:48:16.373Z,4.10
2022-10-18T08:50:42.984Z,3.80
2022-10-18T08:53:55.362Z,3.70
2022-10-18T08:56:24.488Z,4.10
2022-10-18T08:58:51.296Z,3.80
2022-10-18T09:01:50.502Z,3.90
2022-10-18T09:04:26.272Z,3.80
2022-10-18T09:07:08.200Z,3.90
2022-10-18T09:09:55.149Z,3.90
2022-10-18T09:12:58.612Z,3.70
2022-10-18T09:15:50.126Z,3.70
2022-10-18T09:18:24.638Z,4.00
2022-10-18T09:20:51.351Z,4.00
2022-10-18T09:23:23.128Z,3.70
2022-10-18T09:25:53.568Z,3.50
2022-10-18T09:28:48.389Z,3.60
2022-10-18T09:31:36.703Z,3.20
2022-10-18T09:34:11.669Z,3.30
2022-10-18T09:36:38.719Z,3.80
2022-10-18T09:39:11.117Z,3.30
2022-10-18T09:41:39.033Z,3.30
2022-10-18T09:44:09.153Z,3.40
2022-10-18T09:46:41.105Z,3.30
2022-10-18T09:49:17.160Z,3.60
2022-10-18T09:51:43.900Z,3.60
2022-10-18T09:54:35.984Z,3.70
2022-10-18T09:57:08.244Z,3.80
2022-10-18T09:59:53.065Z,3.40
2022-10-18T10:02:22.197Z,3.30
2022-10-18T10:04:49.985Z,3.60
2022-10-18T10:07:29.928Z,3.30
2022-10-18T10:10:06.545Z,3.20
2022-10-18T10:12:37.868Z,3.70
2022-10-18T10:15:18.035Z,3.20
2022-10-18T10:17:53.291Z,3.10
2022-10-18T10:20:24.666Z,3.40
2022-10-18T10:22:51.808Z,2.90
2022-10-18T10:25:28.815Z,3.20
2022-10-18T10:27:55.689Z,3.40
2022-10-18T10:30:30.579Z,3.20
2022-10-18T10:32:57.321Z,3.60
2022-10-18T10:35:52.520Z,3.20
2022-10-18T10:38:25.587Z,3.40
2022-10-18T10:40:52.287Z,3.30
2022-10-18T10:43:44.556Z,3.10
2022-10-18T10:46:19.298Z,3.00
2022-10-18T10:49:09.587Z,3.20
2022-10-18T10:51:41.597Z,2.90
2022-10-18T10:54:15.427Z,2.80
2022-10-18T10:57:11.350Z,3.00
2022-10-18T11:02:17.800Z,2.80
2022-10-18T11:04:51.983Z,3.20
2022-10-18T11:07:36.825Z,2.80
2022-10-18T11:10:07.085Z,3.30
2022-10-18T11:12:37.290Z,3.10
2022-10-18T11:15:10.483Z,3.20
2022-10-18T11:20:21.401Z,3.10
2022-10-18T11:22:56.827Z,2.90
2022-10-18T11:25:25.423Z,2.90
2022-10-18T11:28:03.046Z,3.00
2022-10-18T11:30:38.935Z,2.90
2022-10-18T11:33:15.439Z,3.10
2022-10-18T11:35:52.497Z,3.00
2022-10-18T11:40:02.008Z,2.80
2022-10-18T11:42:41.181Z,3.00
2022-10-18T11:45:11.098Z,2.80
2022-10-18T11:47:44.925Z,3.10
2022-10-18T11:50:21.572Z,3.00
2022-10-18T11:53:19.444Z,3.10
2022-10-18T11:56:02.944Z,3.30
2022-10-18T11:58:40.283Z,3.20
2022-10-18T12:01:14.599Z,2.90
2022-10-18T12:03:52.768Z,3.30
2022-10-18T12:06:21.796Z,4.20
2022-10-18T12:08:50.729Z,4.00
2022-10-18T12:11:30.843Z,3.30
2022-10-18T12:14:00.010Z,3.20
2022-10-18T12:16:50.365Z,3.20
2022-10-18T12:19:28.474Z,2.90
2022-10-18T12:21:56.501Z,3.00
2022-10-18T12:24:25.751Z,3.10
2022-10-18T12:26:53.881Z,2.90
2022-10-18T12:29:26.180Z,3.40
2022-10-18T12:31:54.882Z,3.80
2022-10-18T12:34:24.735Z,4.20
2022-10-18T12:37:14.644Z,3.60
2022-10-18T12:40:05.090Z,3.30
2022-10-18T12:42:31.608Z,3.30
2022-10-18T12:45:03.048Z,3.30
2022-10-18T12:47:29.859Z,3.30
2022-10-18T12:50:27.382Z,3.00
2022-10-18T12:53:09.373Z,2.60
2022-10-18T12:55:37.390Z,2.70
2022-10-18T12:58:11.201Z,2.60
2022-10-18T13:00:37.830Z,2.60
2022-10-18T13:03:13.494Z,2.80
2022-10-18T13:05:53.957Z,2.60
2022-10-18T13:08:27.962Z,2.90
2022-10-18T13:11:10.233Z,2.90
2022-10-18T13:14:01.115Z,2.80
2022-10-18T13:16:43.117Z,2.60
2022-10-18T13:19:31.561Z,2.80
2022-10-18T13:22:20.307Z,2.90
2022-10-18T13:24:56.163Z,2.50
2022-10-18T13:27:44.216Z,2.50
2022-10-18T13:30:23.045Z,2.60
2022-10-18T13:32:52.660Z,3.10
2022-10-18T13:35:39.271Z,3.00
2022-10-18T13:38:27.259Z,2.70
2022-10-18T13:41:15.214Z,2.70
2022-10-18T13:43:54.150Z,3.00
2022-10-18T13:46:21.667Z,3.00
2022-10-18T13:48:49.653Z,3.20
2022-10-18T13:51:25.430Z,3.30
2022-10-18T13:53:57.938Z,4.00
2022-10-18T13:56:28.885Z,4.40
2022-10-18T13:59:25.612Z,7.80
2022-10-18T14:02:51.428Z,7.20
2022-10-18T14:05:47.582Z,4.70
2022-10-18T14:08:20.983Z,4.10
2022-10-18T14:11:03.679Z,3.70
2022-10-18T14:13:56.823Z,3.30
2022-10-18T14:16:34.854Z,3.40
2022-10-18T14:19:09.163Z,3.50
2022-10-18T14:21:37.430Z,3.40
2022-10-18T14:24:20.546Z,3.80
2022-10-18T14:26:47.440Z,4.90
2022-10-18T14:29:19.580Z,6.00
2022-10-18T14:31:53.961Z,6.30
2022-10-18T14:34:20.652Z,6.00
2022-10-18T14:36:48.532Z,6.10
2022-10-18T14:39:25.440Z,5.50
2022-10-18T14:41:53.641Z,5.00
2022-10-18T14:44:24.513Z,5.30
2022-10-18T14:46:52.505Z,5.70
2022-10-18T14:49:20.315Z,5.90
2022-10-18T14:51:50.397Z,6.30
2022-10-18T14:54:24.958Z,5.90
2022-10-18T14:56:54.528Z,7.00
2022-10-18T14:59:23.678Z,6.50
2022-10-18T15:01:56.041Z,6.80
2022-10-18T15:04:28.531Z,7.80
2022-10-18T15:06:55.545Z,12.30
2022-10-18T15:09:22.287Z,15.30
2022-10-18T15:11:49.117Z,15.90
2022-10-18T15:14:17.974Z,14.90
2022-10-18T15:16:44.846Z,13.90
2022-10-18T15:19:14.794Z,14.10
2022-10-18T15:22:19.703Z,11.10
2022-10-18T15:24:43.610Z,10.80
2022-10-18T15:27:21.128Z,11.40
2022-10-18T15:29:47.976Z,11.90
2022-10-18T15:32:30.937Z,12.90
2022-10-18T15:35:16.625Z,12.80
2022-10-18T15:37:44.645Z,13.00
2022-10-18T15:40:21.439Z,12.90
2022-10-18T15:42:51.614Z,11.70
2022-10-18T15:45:29.332Z,11.90
2022-10-18T15:48:04.989Z,11.50
2022-10-18T15:50:46.038Z,11.70
2022-10-18T15:53:25.309Z,11.20
2022-10-18T15:56:01.264Z,10.40
2022-10-18T15:58:37.083Z,10.00
2022-10-18T16:01:04.520Z,11.20
2022-10-18T16:03:35.128Z,10.70
2022-10-18T16:06:06.780Z,10.50
2022-10-18T16:08:41.134Z,9.50
2022-10-18T16:11:28.473Z,8.40
2022-10-18T16:13:57.987Z,9.00
2022-10-18T16:16:27.629Z,9.20
2022-10-18T16:18:54.520Z,12.10
2022-10-18T16:21:27.912Z,12.20
2022-10-18T16:23:54.632Z,13.00
2022-10-18T16:26:21.524Z,12.50
2022-10-18T16:28:48.745Z,15.20
2022-10-18T16:31:23.374Z,20.60
2022-10-18T16:33:50.799Z,23.10
2022-10-18T16:36:18.752Z,23.90
2022-10-18T16:38:45.504Z,25.20
2022-10-18T16:41:16.033Z,23.30
2022-10-18T16:43:43.847Z,23.80
2022-10-18T16:46:31.352Z,18.20
2022-10-18T16:48:58.285Z,15.60
2022-10-18T16:51:25.040Z,15.90
2022-10-18T16:53:53.374Z,14.90
2022-10-18T16:56:21.688Z,14.20
2022-10-18T16:58:48.561Z,13.80
2022-10-18T17:01:16.713Z,16.90
2022-10-18T17:03:43.758Z,11.90
2022-10-18T17:06:14.724Z,11.70
2022-10-18T17:08:41.345Z,12.50
2022-10-18T17:11:09.391Z,11.80
2022-10-18T17:13:36.119Z,12.40
2022-10-18T17:16:03.837Z,10.50
2022-10-18T17:18:30.723Z,10.50
2022-10-18T17:21:00.731Z,11.50
2022-10-18T17:23:27.349Z,10.50
2022-10-18T17:26:06.965Z,10.80
2022-10-18T17:28:40.899Z,10.90
2022-10-18T17:31:07.865Z,10.20
2022-10-18T17:33:34.642Z,11.00
2022-10-18T17:36:01.336Z,11.90
2022-10-18T17:38:28.209Z,10.70
2022-10-18T17:40:54.953Z,10.50
2022-10-18T17:43:22.751Z,11.10
2022-10-18T17:45:51.190Z,11.10
2022-10-18T17:48:18.134Z,11.00
2022-10-18T17:50:45.011Z,11.40
2022-10-18T17:53:13.065Z,12.10
2022-10-18T17:55:40.006Z,11.10
2022-10-18T17:58:06.818Z,11.10
2022-10-18T18:00:33.635Z,10.50
2022-10-18T18:03:00.792Z,10.30
2022-10-18T18:05:31.790Z,10.20
2022-10-18T18:08:02.894Z,10.20
2022-10-18T18:10:34.283Z,10.30
2022-10-18T18:13:01.468Z,10.30
2022-10-18T18:15:28.364Z,10.30
2022-10-18T18:17:57.406Z,10.60
2022-10-18T18:20:25.325Z,10.20
2022-10-18T18:22:52.129Z,10.80
2022-10-18T18:25:18.915Z,9.80
2022-10-18T18:27:45.569Z,9.40
2022-10-18T18:30:12.488Z,10.10
2022-10-18T18:32:39.667Z,10.10
2022-10-18T18:35:06.676Z,9.90
2022-10-18T18:37:33.470Z,10.80
2022-10-18T18:40:00.115Z,9.80
2022-10-18T18:42:26.804Z,10.80
2022-10-18T18:44:53.472Z,10.60
2022-10-18T18:47:25.235Z,11.60
2022-10-18T18:49:51.897Z,11.80
2022-10-18T18:52:18.578Z,12.40
2022-10-18T18:54:45.273Z,11.30
2022-10-18T18:57:11.926Z,11.30
2022-10-18T18:59:38.670Z,11.50
2022-10-18T19:02:05.299Z,9.90
2022-10-18T19:04:32.416Z,9.90
2022-10-18T19:06:59.253Z,10.10
2022-10-18T19:09:27.511Z,9.00
2022-10-18T19:11:55.195Z,8.60
2022-10-18T19:16:55.313Z,9.10
2022-10-18T19:19:23.234Z,8.80
2022-10-18T19:21:54.685Z,8.50
2022-10-18T19:24:22.096Z,9.80
2022-10-18T19:26:53.532Z,8.40
2022-10-18T19:29:28.733Z,7.90
2022-10-18T19:31:57.168Z,7.00
2022-10-18T19:34:25.562Z,7.30
2022-10-18T19:36:53.068Z,6.40
2022-10-18T19:39:25.804Z,5.90
2022-10-18T19:41:55.446Z,5.70
2022-10-18T19:44:23.248Z,5.80
2022-10-18T19:46:52.885Z,6.00
2022-10-18T19:49:20.173Z,5.70
2022-10-18T19:51:47.204Z,6.10
2022-10-18T19:54:14.831Z,5.90
2022-10-18T19:56:41.928Z,6.50
2022-10-18T19:59:09.168Z,5.40
2022-10-18T20:01:36.549Z,5.20
2022-10-18T20:04:04.764Z,5.80
2022-10-18T20:06:32.501Z,5.50
2022-10-18T20:08:59.236Z,5.30
2022-10-18T20:11:28.034Z,5.10
2022-10-18T20:13:56.040Z,5.50
2022-10-18T20:16:28.176Z,7.60
2022-10-18T20:18:59.788Z,11.80
2022-10-18T20:21:26.788Z,19.20
2022-10-18T20:23:53.681Z,12.90
2022-10-18T20:26:20.837Z,16.40
2022-10-18T20:28:49.022Z,14.20
2022-10-18T20:31:17.899Z,12.80
2022-10-18T20:33:45.385Z,11.10
2022-10-18T20:36:13.490Z,9.60
2022-10-18T20:38:41.114Z,10.50
2022-10-18T20:41:14.936Z,8.50
2022-10-18T20:43:42.161Z,9.30
2022-10-18T20:46:09.020Z,9.50
2022-10-18T20:48:35.813Z,9.20
2022-10-18T20:51:07.443Z,10.70
2022-10-18T20:53:35.961Z,9.40
2022-10-18T20:56:11.441Z,9.50
2022-10-18T20:58:39.152Z,8.50
2022-10-18T21:01:12.216Z,7.90
2022-10-18T21:03:40.150Z,7.40
2022-10-18T21:06:15.787Z,8.00
2022-10-18T21:08:43.077Z,8.80
2022-10-18T21:11:10.602Z,8.00
2022-10-18T21:13:38.444Z,8.70
2022-10-18T21:16:05.893Z,7.70
2022-10-18T21:18:34.150Z,7.20
2022-10-18T21:21:18.357Z,7.00
2022-10-18T21:23:45.908Z,9.60
2022-10-18T21:26:17.896Z,9.60
2022-10-18T21:28:45.465Z,8.70
2022-10-18T21:31:14.919Z,9.30
2022-10-18T21:33:42.442Z,8.80
2022-10-18T21:36:09.796Z,13.80
2022-10-18T21:38:37.511Z,10.40
2022-10-18T21:41:10.893Z,9.00
2022-10-18T21:46:10.093Z,8.80
2022-10-18T21:48:37.304Z,6.40
2022-10-18T21:51:06.067Z,6.00
2022-10-18T21:53:32.720Z,7.30
2022-10-18T21:56:10.591Z,6.40
2022-10-18T21:58:37.368Z,6.30
2022-10-18T22:01:20.704Z,7.60
2022-10-18T22:03:48.888Z,6.50
2022-10-18T22:06:17.061Z,8.00
2022-10-18T22:08:51.530Z,8.70
2022-10-18T22:11:21.052Z,6.60
2022-10-18T22:13:48.492Z,6.00
2022-10-18T22:16:16.381Z,6.50
2022-10-18T22:18:43.797Z,6.00
2022-10-18T22:21:11.752Z,5.70
2022-10-18T22:23:43.473Z,5.60
2022-10-18T22:26:11.948Z,6.10
2022-10-18T22:28:39.354Z,5.70
2022-10-18T22:31:06.025Z,5.50
2022-10-18T22:33:32.811Z,5.70
2022-10-18T22:35:59.534Z,5.60
2022-10-18T22:38:26.161Z,6.40
2022-10-18T22:40:53.425Z,5.30
2022-10-18T22:43:20.077Z,5.20
2022-10-18T22:45:46.702Z,5.50
2022-10-18T22:48:13.381Z,5.40
2022-10-18T22:50:40.016Z,5.70
2022-10-18T22:53:06.644Z,5.70
2022-10-18T22:55:33.321Z,5.60
2022-10-18T22:57:59.936Z,5.50
2022-10-18T23:00:26.683Z,5.70
2022-10-18T23:02:53.379Z,5.90
2022-10-18T23:05:19.997Z,6.20
2022-10-18T23:07:49.651Z,5.60
2022-10-18T23:10:16.444Z,5.60
2022-10-18T23:12:43.177Z,5.70
2022-10-18T23:15:10.169Z,5.60
2022-10-18T23:17:37.344Z,5.90
2022-10-18T23:20:05.267Z,5.30
2022-10-18T23:22:32.372Z,5.90
2022-10-18T23:24:59.313Z,5.50
2022-10-18T23:27:25.960Z,5.70
2022-10-18T23:29:52.823Z,5.70
2022-10-18T23:32:19.492Z,5.80
2022-10-18T23:34:46.129Z,5.50
2022-10-18T23:37:12.758Z,5.40
2022-10-18T23:39:39.888Z,5.40
2022-10-18T23:42:06.796Z,5.60
2022-10-18T23:44:33.552Z,5.50
2022-10-18T23:47:00.261Z,5.50
2022-10-18T23:49:26.939Z,5.80
2022-10-18T23:51:53.589Z,5.40
2022-10-18T23:54:20.496Z,5.50
2022-10-18T23:57:50.085Z,5.80
